Terminal Aerodrome Forecast
Issued by NWS

Home | Current Version | Previous Version | Text Only | Print | Product List | Glossary On
Versions: 1 2 3 4 5 6 7 8 9 10 11 12 13 14 15 16 17 18 19 20 21 22 23 24 25 26 27 28 29 30 31 32
000
FTUS43 KDDC 190500
TAFGCK
TAF
KGCK 190531Z 1906/2006 VRB06KT P6SM VCTS BKN150CB
     FM191400 22010KT P6SM SCT250
     FM191900 17015G24KT P6SM SCT250=

USA.gov is the U.S. government's official web portal to all federal, state and local government web resources and services.